Time;durP1;ratioP1;P1;durP2;ratioP2;P2;SDS_P1;SDS_P2;PMS_P1;PMS_P2;Temp;Humidity;BMP_temperature;BMP_pressure;BME280_temperature;BME280_humidity;BME280_pressure;Samples;Min_cycle;Max_cycle;Signal;HPM_P1;HPM_P2
2022/05/24 00:00:01;;;;;;;4.68;2.52;;;16.60;99.90;;;;;;173281;28;919;-72
2022/05/24 00:00:12;;;;;;;4.20;2.43;;;16.60;99.90;;;;;;173183;28;1661;-73
2022/05/24 00:00:24;;;;;;;5.50;2.60;;;16.60;99.90;;;;;;172890;28;1414;-74
2022/05/24 00:00:33;;;;;;;6.13;2.64;;;16.60;99.90;;;;;;173611;28;1209;-75
2022/05/24 00:00:42;;;;;;;6.47;2.57;;;16.60;99.90;;;;;;173587;28;2190;-74
2022/05/24 00:00:48;;;;;;;6.30;2.59;;;16.60;99.90;;;;;;173230;28;1570;-75
2022/05/24 00:00:54;;;;;;;5.87;2.60;;;16.60;99.90;;;;;;173887;28;884;-75
2022/05/24 00:01:00;;;;;;;5.95;2.50;;;16.60;99.90;;;;;;172523;28;898;-74
2022/05/24 00:01:05;;;;;;;5.13;2.35;;;16.60;99.90;;;;;;173257;28;1857;-73
2022/05/24 00:01:11;;;;;;;4.53;2.33;;;16.60;99.90;;;;;;173038;28;1212;-75
2022/05/24 00:01:17;;;;;;;4.10;2.25;;;16.60;99.90;;;;;;173249;28;1005;-73
2022/05/24 00:01:23;;;;;;;4.25;2.22;;;16.60;99.90;;;;;;173163;28;1357;-75
2022/05/24 00:01:29;;;;;;;3.55;2.10;;;16.60;99.90;;;;;;172544;28;856;-75
2022/05/24 00:01:35;;;;;;;3.70;2.17;;;16.60;99.90;;;;;;172398;28;1427;-75
2022/05/24 00:01:41;;;;;;;3.95;2.20;;;16.60;99.90;;;;;;173061;28;1760;-74
2022/05/24 00:01:47;;;;;;;4.57;2.20;;;16.60;99.90;;;;;;173663;28;1244;-73
2022/05/24 00:01:52;;;;;;;4.63;2.20;;;16.60;99.90;;;;;;172376;28;1286;-74
2022/05/24 00:01:58;;;;;;;4.78;2.30;;;16.60;99.90;;;;;;173151;28;994;-71
2022/05/24 00:02:05;;;;;;;4.93;2.40;;;16.60;99.90;;;;;;173765;28;1303;-74
2022/05/24 00:02:10;;;;;;;5.63;2.40;;;16.60;99.90;;;;;;173769;28;1443;-71
2022/05/24 00:02:16;;;;;;;4.93;2.30;;;16.60;99.90;;;;;;173465;28;2035;-74
2022/05/24 00:02:22;;;;;;;4.85;2.35;;;16.60;99.90;;;;;;173706;28;951;-73
2022/05/24 00:02:27;;;;;;;4.60;2.30;;;16.60;99.90;;;;;;174526;28;854;-75
2022/05/24 00:02:33;;;;;;;4.70;2.38;;;16.60;99.90;;;;;;173683;28;911;-71
2022/05/24 00:02:40;;;;;;;3.90;2.28;;;16.60;99.90;;;;;;173091;28;947;-75
2022/05/24 00:02:45;;;;;;;4.40;2.43;;;16.60;99.90;;;;;;173713;28;1380;-74
2022/05/24 00:02:52;;;;;;;4.22;2.42;;;16.60;99.90;;;;;;173842;28;1010;-75
2022/05/24 00:02:59;;;;;;;4.37;2.50;;;16.60;99.90;;;;;;173907;28;839;-75
2022/05/24 00:03:05;;;;;;;4.66;2.50;;;16.60;99.90;;;;;;173163;28;1049;-74
2022/05/24 00:03:11;;;;;;;5.20;2.38;;;16.60;99.90;;;;;;173583;28;1601;-73
2022/05/24 00:03:19;;;;;;;5.32;2.26;;;16.60;99.90;;;;;;173924;28;918;-73
2022/05/24 00:03:25;;;;;;;5.97;2.25;;;16.70;99.90;;;;;;174308;28;1188;-74
2022/05/24 00:03:31;;;;;;;5.87;2.20;;;16.60;99.90;;;;;;174519;28;981;-73
2022/05/24 00:03:37;;;;;;;5.24;2.16;;;16.60;99.90;;;;;;173907;28;1854;-74
2022/05/24 00:03:43;;;;;;;5.13;2.30;;;16.60;99.90;;;;;;173843;28;1707;-75
2022/05/24 00:03:49;;;;;;;4.17;2.30;;;16.70;99.90;;;;;;174175;28;1407;-75
2022/05/24 00:03:56;;;;;;;4.45;2.30;;;16.60;99.90;;;;;;173867;28;1911;-75
2022/05/24 00:04:02;;;;;;;4.55;2.38;;;16.70;99.90;;;;;;174410;28;1808;-74
2022/05/24 00:04:08;;;;;;;5.07;2.40;;;16.60;99.90;;;;;;172990;28;1645;-75
2022/05/24 00:04:13;;;;;;;5.23;2.33;;;16.70;99.90;;;;;;173160;28;878;-75
2022/05/24 00:04:19;;;;;;;5.22;2.30;;;16.70;99.90;;;;;;172321;28;1876;-74
2022/05/24 00:04:25;;;;;;;4.53;2.20;;;16.70;99.90;;;;;;172201;28;1561;-70
2022/05/24 00:04:31;;;;;;;4.53;2.13;;;16.70;99.90;;;;;;172441;28;916;-73
2022/05/24 00:04:37;;;;;;;4.22;2.03;;;16.60;99.90;;;;;;173131;28;847;-73
2022/05/24 00:04:42;;;;;;;3.75;2.00;;;16.70;99.90;;;;;;173093;28;1051;-75
2022/05/24 00:04:48;;;;;;;3.95;1.92;;;16.70;99.90;;;;;;173893;28;839;-74
2022/05/24 00:04:54;;;;;;;4.07;1.97;;;16.70;99.90;;;;;;173810;28;1456;-75
2022/05/24 00:04:59;;;;;;;5.00;1.92;;;16.70;99.90;;;;;;173722;28;1293;-75
2022/05/24 00:05:06;;;;;;;5.65;2.10;;;16.70;99.90;;;;;;173211;28;918;-74
2022/05/24 00:05:13;;;;;;;5.37;2.10;;;16.70;99.90;;;;;;172474;28;1243;-74
2022/05/24 00:05:20;;;;;;;5.35;2.03;;;16.70;99.90;;;;;;171829;28;919;-73
2022/05/24 00:05:29;;;;;;;6.78;2.10;;;16.70;99.90;;;;;;172409;28;1486;-72
2022/05/24 00:05:36;;;;;;;5.76;2.06;;;16.70;99.90;;;;;;172486;28;1316;-75
2022/05/24 00:05:42;;;;;;;6.15;2.13;;;16.70;99.90;;;;;;172520;28;1070;-74
2022/05/24 00:05:48;;;;;;;7.10;2.23;;;16.60;99.90;;;;;;172451;28;1244;-74
2022/05/24 00:05:54;;;;;;;5.25;2.10;;;16.70;99.90;;;;;;172556;28;943;-75
2022/05/24 00:06:00;;;;;;;4.35;2.00;;;16.70;99.90;;;;;;173108;28;1297;-75
2022/05/24 00:06:06;;;;;;;4.57;2.08;;;16.70;99.90;;;;;;173086;28;1006;-74
2022/05/24 00:06:14;;;;;;;4.70;2.17;;;16.70;99.90;;;;;;173340;28;1606;-73
2022/05/24 00:06:19;;;;;;;3.84;2.26;;;16.70;99.90;;;;;;173887;28;966;-75
2022/05/24 00:06:31;;;;;;;4.43;2.50;;;16.70;99.90;;;;;;173149;28;1442;-73
2022/05/24 00:06:37;;;;;;;3.83;2.56;;;16.70;99.90;;;;;;172403;28;1223;-72
2022/05/24 00:06:43;;;;;;;3.60;2.42;;;16.70;99.90;;;;;;173647;28;1758;-74
2022/05/24 00:06:48;;;;;;;4.07;2.42;;;16.70;99.90;;;;;;173645;28;1681;-74
2022/05/24 00:06:54;;;;;;;4.27;2.20;;;16.70;99.90;;;;;;172640;28;1614;-74
2022/05/24 00:07:00;;;;;;;4.55;2.20;;;16.70;99.90;;;;;;172351;28;897;-74
2022/05/24 00:07:06;;;;;;;4.93;2.37;;;16.70;99.90;;;;;;172493;28;1471;-70
2022/05/24 00:07:11;;;;;;;5.15;2.45;;;16.70;99.90;;;;;;172099;28;1852;-75
2022/05/24 00:07:17;;;;;;;4.95;2.47;;;16.70;99.90;;;;;;172408;28;796;-75
2022/05/24 00:07:23;;;;;;;4.63;2.47;;;16.70;99.90;;;;;;173113;28;960;-75
2022/05/24 00:07:30;;;;;;;4.22;2.50;;;16.70;99.90;;;;;;173173;28;923;-75
2022/05/24 00:07:37;;;;;;;4.47;2.40;;;16.70;99.90;;;;;;172531;28;943;-74
2022/05/24 00:07:43;;;;;;;4.04;2.30;;;16.70;99.90;;;;;;171867;28;1642;-72
2022/05/24 00:07:49;;;;;;;4.60;2.30;;;16.70;99.90;;;;;;172058;28;1725;-74
2022/05/24 00:07:55;;;;;;;4.75;2.30;;;16.70;99.90;;;;;;172536;28;1125;-71
2022/05/24 00:08:01;;;;;;;4.60;2.22;;;16.70;99.90;;;;;;173197;28;935;-74
2022/05/24 00:08:08;;;;;;;4.70;2.20;;;16.70;99.90;;;;;;172877;28;1900;-74
2022/05/24 00:08:14;;;;;;;4.80;2.17;;;16.70;99.90;;;;;;172509;28;951;-73
2022/05/24 00:08:20;;;;;;;4.65;2.10;;;16.70;99.90;;;;;;172844;28;2099;-75
2022/05/24 00:08:25;;;;;;;5.22;2.13;;;16.70;99.90;;;;;;173235;28;882;-73
2022/05/24 00:08:31;;;;;;;5.43;2.13;;;16.70;99.90;;;;;;171798;28;804;-74
2022/05/24 00:08:37;;;;;;;5.43;2.13;;;16.70;99.90;;;;;;170943;28;1457;-71
2022/05/24 00:08:44;;;;;;;5.53;2.13;;;16.70;99.90;;;;;;172434;28;1213;-75
2022/05/24 00:08:49;;;;;;;5.40;2.25;;;16.70;99.90;;;;;;173212;28;867;-75
2022/05/24 00:08:55;;;;;;;4.88;2.33;;;16.70;99.90;;;;;;173143;28;887;-74
2022/05/24 00:09:01;;;;;;;4.63;2.40;;;16.80;99.90;;;;;;173153;28;1389;-74
2022/05/24 00:09:07;;;;;;;4.78;2.35;;;16.80;99.90;;;;;;173088;28;1772;-72
2022/05/24 00:09:12;;;;;;;4.63;2.30;;;16.80;99.90;;;;;;173060;28;1671;-73
2022/05/24 00:09:18;;;;;;;4.60;2.25;;;16.80;99.90;;;;;;173222;28;1021;-75
2022/05/24 00:09:25;;;;;;;4.55;2.20;;;16.80;99.90;;;;;;173844;28;1167;-75
2022/05/24 00:09:31;;;;;;;4.18;2.04;;;16.80;99.90;;;;;;173811;28;895;-75
2022/05/24 00:09:37;;;;;;;4.00;1.95;;;16.80;99.90;;;;;;173775;28;733;-74
2022/05/24 00:09:43;;;;;;;3.85;2.00;;;16.80;99.90;;;;;;172847;28;1495;-73
2022/05/24 00:09:49;;;;;;;3.70;2.10;;;16.80;99.90;;;;;;172374;28;1974;-74
2022/05/24 00:09:54;;;;;;;4.17;2.20;;;16.80;99.90;;;;;;172368;28;843;-75
2022/05/24 00:10:00;;;;;;;4.60;2.30;;;16.80;99.90;;;;;;173108;28;1386;-73
2022/05/24 00:10:09;;;;;;;4.47;2.40;;;16.80;99.90;;;;;;173196;28;927;-75
2022/05/24 00:10:23;;;;;;;4.46;2.29;;;16.80;99.90;;;;;;173031;28;1733;-70
2022/05/24 00:10:31;;;;;;;5.38;2.40;;;16.80;99.90;;;;;;173835;28;1196;-70
2022/05/24 00:10:37;;;;;;;5.40;2.40;;;16.90;99.90;;;;;;173815;28;949;-74
2022/05/24 00:10:43;;;;;;;5.45;2.40;;;16.90;99.90;;;;;;174544;28;1324;-76
2022/05/24 00:10:49;;;;;;;5.17;2.37;;;16.90;99.90;;;;;;174576;28;954;-74
2022/05/24 00:10:55;;;;;;;4.72;2.20;;;16.90;99.90;;;;;;174565;28;997;-75
2022/05/24 00:11:01;;;;;;;4.60;2.20;;;16.90;99.90;;;;;;174508;28;1036;-73
2022/05/24 00:11:07;;;;;;;6.30;2.30;;;16.90;99.90;;;;;;173203;28;978;-74
2022/05/24 00:11:12;;;;;;;6.68;2.42;;;16.90;99.90;;;;;;173116;28;2535;-75
2022/05/24 00:11:18;;;;;;;7.18;2.50;;;16.90;99.90;;;;;;173278;28;989;-75
2022/05/24 00:11:24;;;;;;;6.47;2.50;;;16.90;99.90;;;;;;173805;28;1274;-74
2022/05/24 00:11:29;;;;;;;6.80;2.53;;;16.90;99.90;;;;;;173880;28;914;-75
2022/05/24 00:11:35;;;;;;;6.25;2.53;;;16.90;99.90;;;;;;173164;28;1231;-75
2022/05/24 00:11:41;;;;;;;5.78;2.55;;;16.90;99.90;;;;;;173069;28;1664;-74
2022/05/24 00:11:46;;;;;;;6.03;2.63;;;16.90;99.90;;;;;;172645;28;1772;-73
2022/05/24 00:11:53;;;;;;;5.90;2.63;;;16.90;99.90;;;;;;173104;28;1244;-74
2022/05/24 00:11:59;;;;;;;5.87;2.73;;;17.00;99.90;;;;;;173274;28;1017;-75
2022/05/24 00:12:05;;;;;;;5.75;2.67;;;17.00;99.90;;;;;;173764;28;1359;-75
2022/05/24 00:12:11;;;;;;;5.63;2.60;;;17.00;99.90;;;;;;173513;28;1710;-74
2022/05/24 00:12:17;;;;;;;5.18;2.38;;;17.00;99.90;;;;;;173734;28;1946;-75
2022/05/24 00:12:22;;;;;;;4.70;2.20;;;17.00;99.90;;;;;;173394;28;1476;-74
2022/05/24 00:12:29;;;;;;;4.30;2.03;;;16.90;99.90;;;;;;173919;28;839;-75
2022/05/24 00:12:35;;;;;;;3.90;2.00;;;17.00;99.90;;;;;;173903;28;978;-75
2022/05/24 00:12:40;;;;;;;3.58;2.03;;;17.00;99.90;;;;;;172933;28;931;-74
2022/05/24 00:12:46;;;;;;;3.65;2.08;;;17.00;99.90;;;;;;173740;28;1239;-74
2022/05/24 00:12:52;;;;;;;4.10;2.20;;;17.00;99.90;;;;;;173071;28;1271;-73
2022/05/24 00:12:59;;;;;;;5.05;2.30;;;17.00;99.90;;;;;;173842;28;1025;-74
2022/05/24 00:13:06;;;;;;;6.05;2.30;;;17.00;99.90;;;;;;172942;28;1612;-74
2022/05/24 00:13:11;;;;;;;6.06;2.30;;;17.00;99.90;;;;;;172927;28;1529;-75
2022/05/24 00:13:17;;;;;;;5.72;2.30;;;17.00;99.90;;;;;;172420;28;1009;-70
2022/05/24 00:13:23;;;;;;;5.53;2.23;;;17.00;99.90;;;;;;172457;28;1213;-75
2022/05/24 00:13:28;;;;;;;5.28;2.20;;;17.00;99.90;;;;;;172493;28;950;-74
2022/05/24 00:13:35;;;;;;;4.30;2.22;;;17.00;99.90;;;;;;172495;28;947;-75
2022/05/24 00:13:40;;;;;;;4.57;2.45;;;17.00;99.90;;;;;;172514;28;836;-75
2022/05/24 00:13:46;;;;;;;4.67;2.53;;;17.00;99.90;;;;;;172408;28;1495;-74
2022/05/24 00:13:52;;;;;;;4.67;2.57;;;17.00;99.90;;;;;;173168;28;988;-74
2022/05/24 00:13:58;;;;;;;4.35;2.60;;;17.00;99.90;;;;;;173816;28;907;-75
2022/05/24 00:14:03;;;;;;;4.15;2.58;;;17.00;99.90;;;;;;173868;28;981;-75
2022/05/24 00:14:09;;;;;;;4.47;2.47;;;17.00;99.90;;;;;;173532;28;1910;-73
2022/05/24 00:14:15;;;;;;;4.57;2.40;;;17.00;99.90;;;;;;173168;28;851;-75
2022/05/24 00:15:19;;;;;;;4.50;2.45;;;17.00;99.90;;;;;;173202;28;950;-71
2022/05/24 00:15:24;;;;;;;5.56;2.17;;;17.00;99.90;;;;;;172896;28;1665;-74
2022/05/24 00:15:32;;;;;;;5.11;2.39;;;17.00;99.90;;;;;;173168;28;1226;-75
2022/05/24 00:15:38;;;;;;;5.15;2.47;;;17.00;99.90;;;;;;173816;28;949;-74
2022/05/24 00:15:44;;;;;;;5.10;2.53;;;17.00;99.90;;;;;;174440;28;1839;-70
2022/05/24 00:15:50;;;;;;;4.97;2.47;;;17.00;99.90;;;;;;174441;28;1543;-73
2022/05/24 00:15:56;;;;;;;5.13;2.33;;;17.00;99.90;;;;;;173909;28;938;-74
2022/05/24 00:16:03;;;;;;;5.18;2.40;;;17.00;99.90;;;;;;172508;28;1041;-74
2022/05/24 00:16:09;;;;;;;5.06;2.36;;;17.00;99.90;;;;;;172472;28;1562;-73
2022/05/24 00:16:15;;;;;;;5.07;2.25;;;17.00;99.90;;;;;;172405;28;1393;-74
2022/05/24 00:16:21;;;;;;;5.82;2.30;;;17.00;99.90;;;;;;172330;28;1226;-74
2022/05/24 00:16:28;;;;;;;5.18;2.25;;;17.00;99.90;;;;;;172494;28;985;-72
2022/05/24 00:16:33;;;;;;;5.25;2.20;;;17.00;99.90;;;;;;172434;28;942;-70
2022/05/24 00:16:39;;;;;;;5.00;2.20;;;17.00;99.90;;;;;;172328;28;1447;-75
2022/05/24 00:16:45;;;;;;;4.80;2.28;;;17.00;99.90;;;;;;172730;28;1531;-74
2022/05/24 00:16:51;;;;;;;4.40;2.35;;;17.00;99.90;;;;;;172321;28;1227;-73
2022/05/24 00:16:56;;;;;;;4.53;2.40;;;17.00;99.90;;;;;;172226;28;1702;-70
2022/05/24 00:17:02;;;;;;;4.90;2.50;;;17.00;99.90;;;;;;174228;28;1275;-73
2022/05/24 00:17:08;;;;;;;4.78;2.45;;;17.00;99.90;;;;;;174484;28;1388;-76
2022/05/24 00:17:14;;;;;;;5.07;2.40;;;17.00;99.90;;;;;;174514;28;2119;-74
2022/05/24 00:17:20;;;;;;;5.00;2.20;;;17.00;99.90;;;;;;172793;28;1465;-75
2022/05/24 00:17:26;;;;;;;5.20;2.25;;;17.00;99.90;;;;;;173220;28;811;-73
2022/05/24 00:17:31;;;;;;;5.20;2.33;;;17.00;99.90;;;;;;172380;28;875;-75
2022/05/24 00:17:37;;;;;;;5.32;2.40;;;17.00;99.90;;;;;;172433;28;1351;-74
2022/05/24 00:17:49;;;;;;;5.40;2.50;;;17.00;99.90;;;;;;173131;28;2083;-75
2022/05/24 00:18:06;;;;;;;5.25;2.54;;;17.00;99.90;;;;;;172354;28;2785;-74
2022/05/24 00:18:20;;;;;;;4.19;2.29;;;17.00;99.90;;;;;;172304;28;1810;-73
2022/05/24 00:18:29;;;;;;;3.59;2.10;;;17.00;99.90;;;;;;172829;28;1745;-72
2022/05/24 00:18:35;;;;;;;4.83;2.40;;;17.00;99.90;;;;;;173370;28;2822;-71
2022/05/24 00:18:40;;;;;;;6.13;2.60;;;17.00;99.90;;;;;;173428;28;1233;-73
2022/05/24 00:18:47;;;;;;;6.32;2.60;;;17.00;99.90;;;;;;173898;28;1348;-74
2022/05/24 00:18:53;;;;;;;6.43;2.70;;;17.00;99.90;;;;;;172497;28;1586;-75
2022/05/24 00:18:59;;;;;;;6.68;2.78;;;16.90;99.90;;;;;;173212;28;879;-75
2022/05/24 00:19:05;;;;;;;5.73;2.63;;;17.00;99.90;;;;;;172415;28;922;-75
2022/05/24 00:19:11;;;;;;;4.75;2.63;;;16.90;99.90;;;;;;172975;28;1922;-74
2022/05/24 00:19:16;;;;;;;5.43;2.75;;;16.90;99.90;;;;;;173119;28;1590;-74
2022/05/24 00:19:22;;;;;;;5.72;2.78;;;16.90;99.90;;;;;;173766;28;1168;-74
2022/05/24 00:19:28;;;;;;;5.27;2.63;;;17.00;99.90;;;;;;173108;28;2411;-73
2022/05/24 00:19:35;;;;;;;5.40;2.70;;;16.90;99.90;;;;;;173445;28;847;-75
2022/05/24 00:19:40;;;;;;;5.66;2.70;;;16.90;99.90;;;;;;174194;28;1736;-74
2022/05/24 00:19:46;;;;;;;4.90;2.60;;;16.90;99.90;;;;;;172566;28;1733;-74
2022/05/24 00:19:52;;;;;;;4.07;2.50;;;16.90;99.90;;;;;;173032;28;1274;-73
2022/05/24 00:19:58;;;;;;;3.90;2.40;;;16.90;99.90;;;;;;173179;28;986;-74
2022/05/24 00:20:05;;;;;;;3.80;2.33;;;16.90;99.90;;;;;;173185;28;935;-72
2022/05/24 00:20:12;;;;;;;4.58;2.32;;;16.90;99.90;;;;;;173130;28;1636;-73
2022/05/24 00:20:18;;;;;;;5.40;2.37;;;16.90;99.90;;;;;;173210;28;914;-74
2022/05/24 00:20:35;;;;;;;5.30;2.42;;;16.90;99.90;;;;;;172521;28;1409;-74
2022/05/24 00:20:52;;;;;;;5.31;2.56;;;16.90;99.90;;;;;;171475;28;1351;-73
2022/05/24 00:21:02;;;;;;;5.03;2.51;;;16.90;99.90;;;;;;172440;28;1317;-75
2022/05/24 00:21:08;;;;;;;7.19;2.60;;;16.90;99.90;;;;;;172365;28;2356;-73
2022/05/24 00:21:14;;;;;;;7.85;2.88;;;16.90;99.90;;;;;;173569;28;1385;-71
2022/05/24 00:21:19;;;;;;;7.95;2.97;;;16.90;99.90;;;;;;173106;28;1220;-75
2022/05/24 00:21:25;;;;;;;6.10;3.00;;;16.90;99.90;;;;;;173203;28;855;-74
2022/05/24 00:21:31;;;;;;;5.75;3.03;;;17.00;99.90;;;;;;173395;28;1472;-74
2022/05/24 00:21:36;;;;;;;4.55;2.78;;;16.90;99.90;;;;;;173003;28;1546;-75
2022/05/24 00:21:42;;;;;;;4.23;2.63;;;16.90;99.90;;;;;;173099;28;1319;-72
2022/05/24 00:21:48;;;;;;;3.85;2.58;;;16.90;99.90;;;;;;173319;28;1590;-74
2022/05/24 00:21:53;;;;;;;4.05;2.60;;;17.00;99.90;;;;;;174392;28;1247;-75
2022/05/24 00:21:59;;;;;;;3.90;2.47;;;16.90;99.90;;;;;;175184;28;1213;-74
2022/05/24 00:22:05;;;;;;;4.60;2.53;;;16.90;99.90;;;;;;175260;28;1142;-74
2022/05/24 00:22:11;;;;;;;4.57;2.50;;;16.90;99.90;;;;;;174290;28;1425;-71
2022/05/24 00:22:17;;;;;;;4.60;2.50;;;16.90;99.90;;;;;;174380;28;971;-72
2022/05/24 00:22:23;;;;;;;4.50;2.55;;;17.00;99.90;;;;;;174605;28;800;-74
2022/05/24 00:22:28;;;;;;;4.82;2.58;;;16.90;99.90;;;;;;174466;28;1329;-74
2022/05/24 00:22:34;;;;;;;4.63;2.57;;;16.90;99.90;;;;;;173107;28;819;-75
2022/05/24 00:22:40;;;;;;;4.95;2.53;;;16.90;99.90;;;;;;173842;28;950;-75
2022/05/24 00:22:46;;;;;;;4.80;2.40;;;16.90;99.90;;;;;;173238;28;847;-75
2022/05/24 00:22:52;;;;;;;4.57;2.20;;;16.90;99.90;;;;;;172480;28;876;-75
2022/05/24 00:22:58;;;;;;;4.00;2.13;;;16.90;99.90;;;;;;173251;28;824;-75
2022/05/24 00:23:05;;;;;;;3.60;2.05;;;16.90;99.90;;;;;;172930;28;1541;-74
2022/05/24 00:23:11;;;;;;;3.38;2.10;;;17.00;99.90;;;;;;172255;28;1708;-73
2022/05/24 00:23:19;;;;;;;4.17;2.23;;;16.90;99.90;;;;;;171998;28;1480;-72
2022/05/24 00:23:27;;;;;;;4.97;2.30;;;16.90;99.90;;;;;;173667;28;1288;-75
2022/05/24 00:23:34;;;;;;;5.20;2.42;;;16.90;99.90;;;;;;173837;28;1360;-75
2022/05/24 00:23:39;;;;;;;5.48;2.38;;;16.90;99.90;;;;;;173225;28;894;-75
2022/05/24 00:23:45;;;;;;;5.10;2.50;;;17.00;99.90;;;;;;172153;28;1793;-73
2022/05/24 00:23:51;;;;;;;4.68;2.45;;;16.90;99.90;;;;;;172305;28;1418;-75
2022/05/24 00:23:59;;;;;;;4.43;2.50;;;16.90;99.90;;;;;;173681;28;1204;-74
2022/05/24 00:24:05;;;;;;;4.00;2.37;;;16.90;99.90;;;;;;173204;28;926;-75
2022/05/24 00:24:11;;;;;;;4.18;2.52;;;16.90;99.90;;;;;;173683;28;1343;-74
2022/05/24 00:24:16;;;;;;;4.30;2.50;;;16.90;99.90;;;;;;173753;28;882;-75
2022/05/24 00:24:22;;;;;;;4.70;2.50;;;16.90;99.90;;;;;;173906;28;816;-72
2022/05/24 00:24:28;;;;;;;4.90;2.65;;;17.00;99.90;;;;;;173895;28;942;-75
2022/05/24 00:24:33;;;;;;;5.77;2.80;;;16.90;99.90;;;;;;173786;28;913;-74
2022/05/24 00:24:39;;;;;;;5.35;2.72;;;16.90;99.90;;;;;;174448;28;847;-73
2022/05/24 00:24:45;;;;;;;5.13;2.70;;;16.90;99.90;;;;;;173043;28;1275;-74
2022/05/24 00:24:51;;;;;;;4.83;2.70;;;16.90;99.90;;;;;;173629;28;2328;-70
2022/05/24 00:25:01;;;;;;;5.70;2.78;;;16.90;99.90;;;;;;173835;28;1428;-74
2022/05/24 00:25:07;;;;;;;6.20;2.70;;;16.90;99.90;;;;;;173853;28;863;-74
2022/05/24 00:25:13;;;;;;;6.34;2.62;;;17.00;99.90;;;;;;173748;28;1605;-72
2022/05/24 00:25:20;;;;;;;6.27;2.57;;;16.90;99.90;;;;;;172928;28;1073;-72
2022/05/24 00:25:27;;;;;;;5.62;2.48;;;16.90;99.90;;;;;;172572;28;879;-73
2022/05/24 00:25:38;;;;;;;4.33;2.38;;;16.90;99.90;;;;;;172513;28;1357;-74
2022/05/24 00:25:49;;;;;;;4.27;2.42;;;16.90;99.90;;;;;;172337;28;2904;-75
2022/05/24 00:26:01;;;;;;;4.98;2.61;;;16.90;99.90;;;;;;172488;28;1231;-74
2022/05/24 00:26:12;;;;;;;5.50;2.56;;;16.90;99.90;;;;;;172377;28;1409;-73
2022/05/24 00:26:30;;;;;;;5.51;2.60;;;17.00;99.90;;;;;;173463;28;1503;-77
2022/05/24 00:26:36;;;;;;;5.24;2.56;;;17.00;99.90;;;;;;173123;28;1362;-71
2022/05/24 00:26:41;;;;;;;5.03;2.47;;;16.90;99.90;;;;;;173875;28;982;-75
2022/05/24 00:26:47;;;;;;;4.88;2.55;;;16.90;99.90;;;;;;173908;28;985;-74
2022/05/24 00:26:53;;;;;;;4.63;2.55;;;16.90;99.90;;;;;;173865;28;875;-73
2022/05/24 00:26:59;;;;;;;4.32;2.50;;;16.90;99.90;;;;;;174408;28;1239;-74
2022/05/24 00:27:05;;;;;;;4.23;2.57;;;16.90;99.90;;;;;;173864;28;958;-75
2022/05/24 00:27:11;;;;;;;4.68;2.60;;;16.90;99.90;;;;;;173749;28;1494;-72
2022/05/24 00:27:16;;;;;;;4.85;2.65;;;16.90;99.90;;;;;;173534;28;1550;-74
2022/05/24 00:27:22;;;;;;;4.93;2.63;;;16.90;99.90;;;;;;173811;28;847;-72
2022/05/24 00:27:29;;;;;;;5.15;2.80;;;16.90;99.90;;;;;;174419;28;894;-75
2022/05/24 00:27:34;;;;;;;5.66;3.00;;;17.00;99.90;;;;;;173850;28;1273;-75
2022/05/24 00:27:41;;;;;;;5.30;3.03;;;16.90;99.90;;;;;;173767;28;1278;-75
2022/05/24 00:27:47;;;;;;;5.43;2.90;;;17.00;99.90;;;;;;173554;28;1658;-74
2022/05/24 00:27:54;;;;;;;5.30;2.80;;;16.90;99.90;;;;;;173734;28;1703;-74
2022/05/24 00:28:00;;;;;;;5.16;2.64;;;16.90;99.90;;;;;;173549;28;1681;-75
2022/05/24 00:28:07;;;;;;;5.47;2.63;;;16.90;99.90;;;;;;172592;28;848;-74
2022/05/24 00:28:15;;;;;;;5.30;2.75;;;16.90;99.90;;;;;;173114;28;1342;-74
2022/05/24 00:28:26;;;;;;;5.73;2.90;;;17.00;99.90;;;;;;172492;28;1038;-74
2022/05/24 00:28:34;;;;;;;5.99;2.81;;;16.90;99.90;;;;;;172282;28;2425;-71
2022/05/24 00:28:40;;;;;;;5.73;2.68;;;16.90;99.90;;;;;;172662;28;966;-75
2022/05/24 00:28:45;;;;;;;5.28;2.55;;;16.90;99.90;;;;;;173703;28;1857;-73
2022/05/24 00:28:51;;;;;;;5.13;2.43;;;17.00;99.90;;;;;;173864;28;1029;-74
2022/05/24 00:28:57;;;;;;;4.28;2.40;;;16.90;99.90;;;;;;172384;28;943;-73
2022/05/24 00:29:03;;;;;;;4.50;2.40;;;17.00;99.90;;;;;;172278;28;1858;-72
2022/05/24 00:29:08;;;;;;;3.97;2.28;;;17.00;99.90;;;;;;172975;28;1709;-73
2022/05/24 00:29:14;;;;;;;3.53;2.10;;;17.00;99.90;;;;;;173661;28;1468;-74
2022/05/24 00:29:20;;;;;;;3.70;2.10;;;17.00;99.90;;;;;;173613;28;848;-73
2022/05/24 00:29:26;;;;;;;3.95;2.28;;;17.00;99.90;;;;;;173213;28;812;-74
2022/05/24 00:29:32;;;;;;;4.00;2.30;;;17.00;99.90;;;;;;172926;28;1678;-75
2022/05/24 00:29:37;;;;;;;4.77;2.43;;;17.00;99.90;;;;;;173678;28;1648;-73
2022/05/24 00:29:43;;;;;;;5.13;2.50;;;17.00;99.90;;;;;;173005;28;1624;-75
2022/05/24 00:29:49;;;;;;;5.10;2.50;;;17.00;99.90;;;;;;172817;28;2004;-74
2022/05/24 00:29:56;;;;;;;4.97;2.60;;;17.00;99.90;;;;;;173118;28;840;-75
2022/05/24 00:30:04;;;;;;;4.97;2.63;;;17.00;99.90;;;;;;173147;28;1033;-74
2022/05/24 00:30:10;;;;;;;4.72;2.60;;;17.00;99.90;;;;;;172432;28;1220;-74
2022/05/24 00:30:17;;;;;;;5.97;2.63;;;16.90;99.90;;;;;;172949;28;1827;-74
2022/05/24 00:30:23;;;;;;;6.47;2.70;;;17.00;99.90;;;;;;173053;28;998;-73
2022/05/24 00:30:29;;;;;;;6.53;2.70;;;16.90;99.90;;;;;;173243;28;859;-74
2022/05/24 00:30:37;;;;;;;6.66;2.82;;;16.90;99.90;;;;;;173067;28;1358;-75
2022/05/24 00:30:46;;;;;;;6.20;3.08;;;16.90;99.90;;;;;;173256;28;2012;-73
2022/05/24 00:30:53;;;;;;;5.84;3.16;;;16.90;99.90;;;;;;173141;28;1360;-75
2022/05/24 00:31:00;;;;;;;5.83;3.10;;;16.90;99.90;;;;;;173220;28;1601;-74
2022/05/24 00:31:06;;;;;;;6.20;3.06;;;16.90;99.90;;;;;;173038;28;1730;-75
2022/05/24 00:31:12;;;;;;;6.65;2.88;;;16.90;99.90;;;;;;173240;28;792;-73
2022/05/24 00:31:18;;;;;;;6.60;2.88;;;16.90;99.90;;;;;;173008;28;1703;-74
2022/05/24 00:31:24;;;;;;;6.30;2.77;;;16.90;99.90;;;;;;173894;28;847;-74
2022/05/24 00:31:30;;;;;;;5.97;2.70;;;16.90;99.90;;;;;;174542;28;1897;-72
2022/05/24 00:31:35;;;;;;;5.45;2.75;;;16.90;99.90;;;;;;173793;28;1471;-74
2022/05/24 00:31:41;;;;;;;4.75;2.80;;;16.90;99.90;;;;;;173544;28;1910;-71
2022/05/24 00:31:47;;;;;;;4.85;2.85;;;16.90;99.90;;;;;;173574;28;1728;-74
2022/05/24 00:31:53;;;;;;;5.30;2.90;;;16.90;99.90;;;;;;173862;28;918;-74
2022/05/24 00:31:59;;;;;;;5.87;3.00;;;16.90;99.90;;;;;;173036;28;808;-74
2022/05/24 00:32:06;;;;;;;6.77;3.20;;;16.90;99.90;;;;;;174929;28;1532;-73
2022/05/24 00:32:11;;;;;;;6.78;3.20;;;16.90;99.90;;;;;;174899;28;2059;-75
2022/05/24 00:32:17;;;;;;;6.78;3.10;;;16.90;99.90;;;;;;174061;28;1738;-72
2022/05/24 00:32:23;;;;;;;6.60;3.10;;;16.90;99.90;;;;;;172962;28;1574;-75
2022/05/24 00:32:29;;;;;;;6.22;3.06;;;16.90;99.90;;;;;;173474;28;1637;-74
2022/05/24 00:32:35;;;;;;;5.23;2.70;;;16.80;99.90;;;;;;173088;28;866;-74
2022/05/24 00:32:41;;;;;;;5.60;2.70;;;16.90;99.90;;;;;;173089;28;1401;-74
2022/05/24 00:32:47;;;;;;;5.00;2.53;;;16.90;99.90;;;;;;173858;28;1330;-74
2022/05/24 00:32:52;;;;;;;4.32;2.38;;;16.90;99.90;;;;;;173899;28;843;-75
2022/05/24 00:32:58;;;;;;;4.03;2.33;;;16.80;99.90;;;;;;173188;28;890;-75
2022/05/24 00:33:04;;;;;;;3.93;2.33;;;16.90;99.90;;;;;;173215;28;1396;-75
2022/05/24 00:33:10;;;;;;;4.22;2.30;;;16.90;99.90;;;;;;173670;28;1733;-71
2022/05/24 00:33:17;;;;;;;4.33;2.40;;;16.80;99.90;;;;;;172193;28;1589;-73
2022/05/24 00:33:22;;;;;;;5.20;2.53;;;16.80;99.90;;;;;;172892;28;1566;-72
2022/05/24 00:33:28;;;;;;;5.78;2.70;;;16.80;99.90;;;;;;173437;28;1610;-74
2022/05/24 00:33:34;;;;;;;5.93;2.73;;;16.90;99.90;;;;;;173849;28;2234;-73
2022/05/24 00:33:40;;;;;;;5.22;2.85;;;16.90;99.90;;;;;;173125;28;819;-74
2022/05/24 00:33:46;;;;;;;6.57;2.80;;;16.80;99.90;;;;;;173232;28;878;-73
2022/05/24 00:33:52;;;;;;;6.60;2.80;;;16.80;99.90;;;;;;173081;28;1483;-72
2022/05/24 00:33:58;;;;;;;6.28;2.75;;;16.80;99.90;;;;;;172385;28;1531;-75
2022/05/24 00:34:03;;;;;;;6.78;2.70;;;16.80;99.90;;;;;;172549;28;832;-74
2022/05/24 00:34:09;;;;;;;7.43;2.60;;;16.80;99.90;;;;;;173847;28;1053;-75
2022/05/24 00:34:15;;;;;;;6.38;2.63;;;16.80;99.90;;;;;;172845;28;2270;-73
2022/05/24 00:34:21;;;;;;;5.80;2.67;;;16.90;99.90;;;;;;173732;28;2433;-74
2022/05/24 00:34:26;;;;;;;5.72;2.75;;;16.90;99.90;;;;;;173184;28;935;-74
2022/05/24 00:34:32;;;;;;;6.57;2.87;;;16.80;99.90;;;;;;172602;28;2379;-72
2022/05/24 00:34:38;;;;;;;5.72;2.83;;;16.80;99.90;;;;;;172489;28;943;-74
2022/05/24 00:34:43;;;;;;;5.85;2.83;;;16.90;99.90;;;;;;172247;28;840;-74
2022/05/24 00:34:49;;;;;;;5.80;2.73;;;16.90;99.90;;;;;;171622;28;1185;-74
2022/05/24 00:34:55;;;;;;;5.65;2.65;;;16.80;99.90;;;;;;171714;28;1385;-74
2022/05/24 00:35:01;;;;;;;4.78;2.50;;;16.80;99.90;;;;;;171784;28;995;-74
2022/05/24 00:35:07;;;;;;;4.55;2.50;;;16.80;99.90;;;;;;171913;28;1085;-73
2022/05/24 00:35:15;;;;;;;4.03;2.47;;;16.80;99.90;;;;;;171885;28;872;-75
2022/05/24 00:35:21;;;;;;;4.22;2.57;;;16.80;99.90;;;;;;172637;28;2456;-70
2022/05/24 00:35:27;;;;;;;4.55;2.78;;;16.80;99.90;;;;;;172961;28;1478;-74
2022/05/24 00:35:33;;;;;;;4.65;2.80;;;16.80;99.90;;;;;;173155;28;1051;-74